Time;durP1;ratioP1;P1;durP2;ratioP2;P2;SDS_P1;SDS_P2;PMS_P1;PMS_P2;Temp;Humidity;BMP_temperature;BMP_pressure;BME280_temperature;BME280_humidity;BME280_pressure;Samples;Min_cycle;Max_cycle;Signal;HPM_P1;HPM_P2
2024/03/16 00:00:34;;;;;;;5.63;2.10;;;15.60;80.50;;;;;;4977365;28;20339;-37
2024/03/16 00:03:00;;;;;;;5.05;1.90;;;15.60;80.50;;;;;;4963835;28;20382;-39
2024/03/16 00:05:27;;;;;;;3.80;1.75;;;15.50;80.40;;;;;;4980527;28;20030;-35
2024/03/16 00:07:53;;;;;;;4.60;1.90;;;15.50;80.40;;;;;;4976573;28;20011;-37
2024/03/16 00:10:19;;;;;;;3.75;2.10;;;15.50;80.40;;;;;;4970009;28;20039;-36
2024/03/16 00:12:45;;;;;;;3.50;1.83;;;15.50;80.50;;;;;;4980835;28;20038;-37
2024/03/16 00:15:11;;;;;;;5.22;1.85;;;15.50;80.50;;;;;;4979347;28;20022;-34
2024/03/16 00:17:37;;;;;;;2.92;1.80;;;15.50;80.50;;;;;;4967549;28;20070;-31
2024/03/16 00:20:07;;;;;;;4.25;1.75;;;15.50;80.50;;;;;;4967651;28;20023;-35
2024/03/16 00:22:33;;;;;;;3.88;1.92;;;15.50;80.50;;;;;;4970856;28;20027;-33
2024/03/16 00:25:00;;;;;;;3.38;2.00;;;15.50;80.50;;;;;;4967318;28;20049;-33
2024/03/16 00:27:26;;;;;;;4.18;2.00;;;15.50;80.50;;;;;;4974856;28;20094;-32
2024/03/16 00:29:51;;;;;;;5.13;2.05;;;15.50;80.50;;;;;;4971823;28;20076;-37
2024/03/16 00:32:17;;;;;;;5.00;2.20;;;15.50;80.50;;;;;;4974287;28;20030;-37
2024/03/16 00:34:43;;;;;;;4.45;2.03;;;15.50;80.50;;;;;;4973125;28;20023;-35
2024/03/16 00:37:08;;;;;;;4.80;2.28;;;15.50;80.50;;;;;;4956097;28;20053;-37
2024/03/16 00:39:35;;;;;;;3.47;1.95;;;15.40;80.50;;;;;;4976125;28;20621;-34
2024/03/16 00:42:01;;;;;;;6.88;2.45;;;15.40;80.50;;;;;;4968359;28;20102;-36
2024/03/16 00:44:27;;;;;;;3.60;1.95;;;15.40;80.50;;;;;;4950006;28;20012;-38
2024/03/16 00:46:53;;;;;;;5.45;2.30;;;15.40;80.50;;;;;;4969912;28;20458;-35
2024/03/16 00:49:19;;;;;;;6.70;2.80;;;15.40;80.50;;;;;;4971822;28;20051;-35
2024/03/16 00:51:45;;;;;;;4.38;2.15;;;15.40;80.50;;;;;;4966215;28;20042;-37
2024/03/16 00:54:11;;;;;;;3.33;1.98;;;15.40;80.60;;;;;;4972907;28;20030;-37
2024/03/16 00:56:39;;;;;;;4.70;2.45;;;15.40;80.60;;;;;;4975124;28;20031;-36
2024/03/16 00:59:05;;;;;;;4.68;2.40;;;15.40;80.60;;;;;;4973110;28;20041;-38
2024/03/16 01:01:34;;;;;;;4.28;2.50;;;15.40;80.60;;;;;;4970714;28;20059;-38
2024/03/16 01:04:04;;;;;;;3.75;1.92;;;15.40;80.70;;;;;;4964652;28;20030;-32
2024/03/16 01:06:30;;;;;;;5.72;2.75;;;15.40;80.70;;;;;;4972276;28;20049;-36
2024/03/16 01:08:56;;;;;;;5.32;2.30;;;15.30;80.70;;;;;;4975016;28;20034;-36
2024/03/16 01:11:25;;;;;;;4.93;2.10;;;15.30;80.70;;;;;;4971960;28;20030;-37
2024/03/16 01:13:51;;;;;;;5.97;2.50;;;15.30;80.70;;;;;;4973110;28;20019;-33
2024/03/16 01:16:16;;;;;;;6.20;2.65;;;15.30;80.70;;;;;;4973805;28;20045;-35
2024/03/16 01:18:43;;;;;;;4.15;2.30;;;15.30;80.80;;;;;;4975108;28;20022;-35
2024/03/16 01:21:09;;;;;;;7.00;2.88;;;15.30;80.80;;;;;;4970703;28;20069;-36
2024/03/16 01:23:35;;;;;;;5.78;2.70;;;15.30;80.80;;;;;;4970055;28;20093;-36
2024/03/16 01:26:03;;;;;;;5.45;2.65;;;15.30;80.80;;;;;;4973777;28;20030;-37
2024/03/16 01:28:30;;;;;;;5.72;3.15;;;15.30;80.80;;;;;;4970715;28;20038;-37
2024/03/16 01:30:57;;;;;;;4.38;3.10;;;15.30;80.80;;;;;;4973041;28;20043;-33
2024/03/16 01:33:22;;;;;;;5.80;3.42;;;15.20;80.80;;;;;;4969606;28;20054;-34
2024/03/16 01:35:48;;;;;;;5.32;3.00;;;15.30;80.80;;;;;;4973571;28;20023;-36
2024/03/16 01:38:15;;;;;;;5.43;3.20;;;15.20;80.80;;;;;;4975679;28;20058;-39
2024/03/16 01:40:42;;;;;;;5.35;3.10;;;15.20;80.80;;;;;;4974270;28;20062;-39
2024/03/16 01:43:12;;;;;;;7.00;3.25;;;15.20;80.80;;;;;;4972352;28;20098;-39
2024/03/16 01:45:41;;;;;;;6.20;3.50;;;15.20;80.80;;;;;;4971893;28;20367;-39
2024/03/16 01:48:10;;;;;;;6.63;3.22;;;15.20;80.80;;;;;;4972668;28;20577;-37
2024/03/16 01:50:39;;;;;;;5.28;3.25;;;15.20;81.40;;;;;;4971208;28;20097;-39
2024/03/16 01:53:07;;;;;;;5.45;3.35;;;15.20;80.80;;;;;;4971827;28;20039;-39
2024/03/16 01:55:36;;;;;;;7.10;3.55;;;15.20;80.90;;;;;;4978131;28;20125;-40
2024/03/16 01:58:04;;;;;;;6.15;3.63;;;15.20;80.90;;;;;;4977221;28;20031;-39
2024/03/16 02:00:36;;;;;;;6.10;3.58;;;15.20;80.90;;;;;;4973532;28;20042;-39
2024/03/16 02:03:02;;;;;;;7.70;3.67;;;15.20;80.90;;;;;;4974782;28;20038;-39
2024/03/16 02:05:29;;;;;;;7.60;4.05;;;15.20;80.90;;;;;;4974350;28;20046;-40
2024/03/16 02:07:54;;;;;;;7.25;3.80;;;15.20;80.90;;;;;;4969541;28;20500;-39
2024/03/16 02:10:21;;;;;;;6.32;3.85;;;15.10;80.80;;;;;;4969644;28;20039;-38
2024/03/16 02:12:48;;;;;;;5.90;3.55;;;15.20;81.00;;;;;;4975085;28;20046;-36
2024/03/16 02:15:14;;;;;;;6.45;3.88;;;15.10;80.80;;;;;;4969667;28;20023;-38
2024/03/16 02:17:40;;;;;;;6.75;4.10;;;15.10;80.80;;;;;;4976084;28;20090;-37
2024/03/16 02:20:15;;;;;;;6.30;3.85;;;15.10;80.90;;;;;;4968884;28;20015;-39
2024/03/16 02:22:42;;;;;;;6.30;3.78;;;15.10;80.90;;;;;;4970414;28;20035;-39
2024/03/16 02:25:09;;;;;;;6.22;3.60;;;15.10;80.90;;;;;;4952987;28;20035;-39
2024/03/16 02:27:35;;;;;;;6.45;4.40;;;15.10;80.90;;;;;;4973828;28;20027;-38
2024/03/16 02:30:01;;;;;;;6.70;3.88;;;15.10;80.90;;;;;;4965843;28;20042;-40
2024/03/16 02:32:27;;;;;;;7.32;4.10;;;15.10;80.90;;;;;;4977855;28;20045;-39
2024/03/16 02:34:53;;;;;;;6.57;3.95;;;15.10;80.90;;;;;;4971769;28;20086;-39
2024/03/16 02:37:19;;;;;;;5.90;3.97;;;15.10;80.90;;;;;;4966385;28;20032;-39
2024/03/16 02:39:45;;;;;;;8.35;4.22;;;15.00;80.90;;;;;;4969521;28;20027;-40
2024/03/16 02:42:11;;;;;;;6.88;3.85;;;15.10;80.90;;;;;;4976099;28;20018;-39
2024/03/16 02:44:37;;;;;;;7.13;4.07;;;15.00;80.90;;;;;;4973818;28;20090;-39
2024/03/16 02:47:04;;;;;;;8.43;4.38;;;15.00;80.90;;;;;;4958422;28;20031;-41
2024/03/16 02:49:30;;;;;;;7.65;4.47;;;15.00;80.90;;;;;;4972728;28;20062;-38
2024/03/16 02:51:56;;;;;;;7.05;4.20;;;15.00;80.90;;;;;;4970670;28;20027;-39
2024/03/16 02:54:21;;;;;;;7.18;4.65;;;15.00;80.80;;;;;;4977529;28;20031;-40
2024/03/16 02:56:48;;;;;;;7.18;4.32;;;15.00;80.90;;;;;;4975476;28;20046;-37
2024/03/16 02:59:13;;;;;;;6.75;4.57;;;15.00;80.80;;;;;;4975801;28;20178;-37
2024/03/16 03:01:39;;;;;;;8.48;4.78;;;15.00;80.90;;;;;;4975286;28;20487;-40
2024/03/16 03:04:06;;;;;;;6.97;4.45;;;15.00;80.90;;;;;;4975799;28;20129;-40
2024/03/16 03:06:32;;;;;;;6.82;4.38;;;15.00;80.90;;;;;;4968881;28;20034;-39
2024/03/16 03:08:59;;;;;;;9.07;4.85;;;14.90;80.80;;;;;;4952148;28;20058;-40
2024/03/16 03:11:27;;;;;;;8.95;4.80;;;15.00;80.80;;;;;;4970239;28;20045;-39
2024/03/16 03:13:53;;;;;;;8.27;5.00;;;15.00;80.80;;;;;;4974497;28;20051;-40
2024/03/16 03:16:20;;;;;;;7.97;4.85;;;15.00;80.80;;;;;;4973655;28;20043;-37
2024/03/16 03:18:50;;;;;;;7.93;4.63;;;15.00;80.80;;;;;;4970580;28;20027;-39
2024/03/16 03:21:17;;;;;;;7.85;4.50;;;15.00;80.80;;;;;;4971485;28;20039;-40
2024/03/16 03:23:43;;;;;;;8.00;4.93;;;15.00;80.80;;;;;;4965362;28;20050;-37
2024/03/16 03:26:11;;;;;;;8.32;5.10;;;14.90;80.70;;;;;;4968449;28;20039;-39
2024/03/16 03:28:37;;;;;;;6.82;4.45;;;14.90;80.70;;;;;;4969028;28;20024;-39
2024/03/16 03:31:04;;;;;;;6.00;3.88;;;14.90;80.70;;;;;;4964808;28;20078;-38
2024/03/16 03:33:31;;;;;;;8.30;4.38;;;14.90;80.70;;;;;;4971815;28;20024;-37
2024/03/16 03:35:57;;;;;;;7.68;4.28;;;14.90;80.70;;;;;;4971991;28;20032;-38
2024/03/16 03:38:22;;;;;;;7.13;3.97;;;14.90;80.70;;;;;;4973303;28;20043;-38
2024/03/16 03:40:48;;;;;;;6.88;3.90;;;14.90;80.70;;;;;;4967843;28;20094;-39
2024/03/16 03:43:17;;;;;;;5.80;3.65;;;14.90;80.70;;;;;;4950727;28;20027;-40
2024/03/16 03:49:10;;;;;;;4.82;3.15;;;14.90;80.70;;;;;;4962176;28;20078;-38
2024/03/16 03:50:57;;;;;;;5.10;3.53;;;14.80;80.60;;;;;;4962214;28;20063;-40
2024/03/16 03:53:25;;;;;;;5.43;2.88;;;14.80;80.70;;;;;;4956316;28;20086;-39
2024/03/16 03:55:51;;;;;;;5.43;3.42;;;14.80;80.70;;;;;;4972964;28;20046;-36
2024/03/16 03:58:19;;;;;;;4.30;2.92;;;14.80;80.70;;;;;;4971818;28;20034;-40
2024/03/16 04:00:46;;;;;;;4.82;3.42;;;14.80;80.70;;;;;;4977779;28;20094;-38
2024/03/16 04:03:12;;;;;;;4.88;3.00;;;14.80;80.80;;;;;;4951286;28;20038;-36
2024/03/16 04:05:38;;;;;;;4.88;3.10;;;14.80;80.70;;;;;;4966799;28;20015;-40
2024/03/16 04:08:05;;;;;;;4.57;2.90;;;14.80;80.70;;;;;;4972805;28;20022;-37
2024/03/16 04:10:32;;;;;;;4.40;3.00;;;14.80;80.80;;;;;;4973786;28;20027;-39
2024/03/16 04:12:57;;;;;;;4.35;3.00;;;14.80;80.80;;;;;;4972820;28;20035;-39
2024/03/16 04:15:23;;;;;;;4.57;2.65;;;14.70;80.70;;;;;;4971129;28;20023;-38
2024/03/16 04:17:50;;;;;;;4.20;2.85;;;14.70;80.70;;;;;;4967200;28;20098;-34
2024/03/16 04:20:17;;;;;;;3.78;2.80;;;14.70;80.70;;;;;;4968517;28;20022;-40
2024/03/16 04:22:43;;;;;;;4.05;2.63;;;14.70;80.70;;;;;;4974023;28;20022;-39
2024/03/16 04:25:12;;;;;;;4.22;3.05;;;14.70;80.70;;;;;;4969261;28;20533;-39
2024/03/16 04:27:39;;;;;;;4.15;3.00;;;14.70;80.70;;;;;;4962870;28;20030;-39
2024/03/16 04:30:06;;;;;;;4.55;3.00;;;14.70;80.70;;;;;;4964655;28;20043;-39
2024/03/16 04:32:33;;;;;;;3.58;2.72;;;14.60;80.70;;;;;;4977630;28;20030;-39
2024/03/16 04:34:59;;;;;;;4.45;3.03;;;14.60;80.70;;;;;;4971019;28;20035;-37
2024/03/16 04:37:25;;;;;;;4.90;2.88;;;14.60;80.70;;;;;;4968525;28;20018;-39
2024/03/16 04:39:51;;;;;;;4.30;2.80;;;14.60;80.70;;;;;;4977673;28;20029;-39
2024/03/16 04:42:17;;;;;;;3.72;2.70;;;14.60;80.70;;;;;;4974094;28;20027;-38
2024/03/16 04:44:43;;;;;;;3.78;2.83;;;14.60;80.70;;;;;;4973968;28;20034;-39
2024/03/16 04:47:09;;;;;;;4.05;2.60;;;14.60;80.60;;;;;;4956065;28;20042;-39
2024/03/16 04:49:35;;;;;;;3.45;2.70;;;14.50;80.60;;;;;;4968027;28;20122;-38
2024/03/16 04:52:01;;;;;;;3.50;2.88;;;14.50;80.60;;;;;;4971694;28;20034;-39
2024/03/16 04:54:26;;;;;;;3.63;2.70;;;14.50;80.60;;;;;;4973909;28;20047;-38
2024/03/16 04:56:52;;;;;;;3.55;2.50;;;14.50;80.60;;;;;;4975081;28;20037;-40
2024/03/16 04:59:18;;;;;;;3.92;2.50;;;14.50;80.60;;;;;;4966944;28;20030;-39
2024/03/16 05:01:45;;;;;;;4.53;2.53;;;14.50;80.60;;;;;;4970235;28;20038;-40
2024/03/16 05:04:12;;;;;;;3.60;2.42;;;14.50;80.60;;;;;;4971729;28;20038;-40
2024/03/16 05:06:40;;;;;;;3.58;2.33;;;14.50;80.60;;;;;;4969221;28;20026;-40
2024/03/16 05:09:07;;;;;;;2.80;2.20;;;14.40;80.60;;;;;;4973735;28;20408;-38
2024/03/16 05:11:33;;;;;;;2.33;2.10;;;14.40;80.60;;;;;;4969143;28;20031;-40
2024/03/16 05:14:00;;;;;;;3.63;2.28;;;14.40;80.60;;;;;;4975508;28;20029;-40
2024/03/16 05:16:26;;;;;;;2.33;1.92;;;14.40;80.60;;;;;;4969903;28;20037;-40
2024/03/16 05:18:52;;;;;;;4.15;2.10;;;14.40;80.60;;;;;;4972817;28;20024;-38
2024/03/16 05:21:18;;;;;;;3.83;2.38;;;14.30;80.60;;;;;;4957236;28;20034;-39
2024/03/16 05:23:45;;;;;;;2.75;2.05;;;14.30;80.60;;;;;;4959791;28;20026;-38
2024/03/16 05:26:14;;;;;;;2.55;2.10;;;14.30;80.60;;;;;;4953682;28;20406;-40
2024/03/16 05:28:40;;;;;;;2.10;1.90;;;14.30;80.60;;;;;;4973367;28;20023;-40
2024/03/16 05:31:09;;;;;;;2.72;2.05;;;14.30;80.60;;;;;;4974245;28;20107;-40
2024/03/16 05:33:36;;;;;;;2.25;2.00;;;14.30;80.60;;;;;;4972560;28;20026;-38
2024/03/16 05:36:02;;;;;;;2.78;2.20;;;14.30;80.60;;;;;;4979484;28;20034;-40
2024/03/16 05:38:28;;;;;;;3.08;2.10;;;14.20;80.50;;;;;;4976028;28;20050;-40
2024/03/16 05:40:55;;;;;;;2.70;1.92;;;14.30;80.60;;;;;;4972058;28;20031;-40
2024/03/16 05:43:21;;;;;;;3.72;1.98;;;14.20;80.50;;;;;;4987196;28;20426;-40
2024/03/16 05:45:50;;;;;;;1.95;1.75;;;14.20;80.50;;;;;;4980813;28;20452;-38
2024/03/16 05:48:17;;;;;;;3.83;2.22;;;14.20;80.60;;;;;;4975196;28;20043;-40
2024/03/16 05:50:43;;;;;;;2.45;1.77;;;14.20;80.60;;;;;;4980903;28;20055;-40
2024/03/16 05:53:11;;;;;;;2.78;1.88;;;14.10;80.50;;;;;;4982362;28;20043;-40
2024/03/16 05:55:38;;;;;;;3.75;1.80;;;14.10;81.20;;;;;;4978370;28;20050;-39
2024/03/16 05:58:05;;;;;;;2.45;2.00;;;14.10;80.60;;;;;;4976292;28;20023;-38
2024/03/16 06:00:32;;;;;;;1.90;1.63;;;14.10;80.60;;;;;;4981194;28;20157;-38
2024/03/16 06:02:59;;;;;;;3.15;1.90;;;14.10;80.60;;;;;;4979422;28;20124;-40
2024/03/16 06:05:25;;;;;;;1.92;1.60;;;14.00;80.60;;;;;;4978751;28;20479;-39
2024/03/16 06:07:51;;;;;;;4.40;1.98;;;14.00;80.60;;;;;;4976295;28;20045;-37
2024/03/16 06:10:17;;;;;;;3.95;2.10;;;14.00;80.70;;;;;;4977023;28;20109;-38
2024/03/16 06:12:43;;;;;;;2.72;1.77;;;14.00;80.70;;;;;;4980123;28;20066;-38
2024/03/16 06:15:10;;;;;;;3.60;1.92;;;13.90;80.60;;;;;;4976965;28;20022;-39
2024/03/16 06:17:36;;;;;;;3.17;1.80;;;13.90;80.60;;;;;;4981203;28;20076;-39
2024/03/16 06:20:05;;;;;;;2.38;1.90;;;14.00;80.70;;;;;;4970384;28;20702;-39
2024/03/16 06:22:31;;;;;;;2.67;1.60;;;13.90;80.60;;;;;;4981503;28;20501;-39
2024/03/16 06:24:57;;;;;;;2.30;1.60;;;13.90;80.60;;;;;;4969213;28;20030;-40
2024/03/16 06:27:23;;;;;;;2.35;1.70;;;13.90;80.70;;;;;;4977082;28;20023;-39
2024/03/16 06:29:52;;;;;;;2.08;1.45;;;13.80;80.60;;;;;;4975019;28;20546;-36
2024/03/16 06:32:21;;;;;;;1.60;1.40;;;13.80;80.60;;;;;;4968824;28;20059;-38
2024/03/16 06:34:50;;;;;;;1.90;1.48;;;13.80;80.70;;;;;;4974646;28;20475;-37
2024/03/16 06:37:18;;;;;;;2.38;1.40;;;13.80;80.60;;;;;;4975057;28;20088;-39
2024/03/16 06:39:46;;;;;;;2.45;1.50;;;13.80;80.60;;;;;;4968038;28;20035;-41
2024/03/16 06:42:11;;;;;;;1.40;1.30;;;13.70;80.50;;;;;;4974821;28;20034;-38
2024/03/16 06:44:38;;;;;;;2.78;1.40;;;13.70;80.50;;;;;;4976177;28;20034;-39
2024/03/16 06:47:08;;;;;;;1.95;1.27;;;13.70;80.50;;;;;;4974878;28;20027;-39
2024/03/16 06:49:33;;;;;;;2.80;1.30;;;13.70;80.60;;;;;;4969522;28;20050;-40
2024/03/16 06:51:59;;;;;;;1.70;1.40;;;13.70;80.60;;;;;;4976992;28;20046;-41
2024/03/16 06:54:25;;;;;;;1.67;1.42;;;13.70;80.60;;;;;;4978731;28;20026;-40
2024/03/16 06:56:51;;;;;;;1.95;1.30;;;13.70;80.60;;;;;;4961634;28;20489;-40
2024/03/16 06:59:16;;;;;;;1.42;1.17;;;13.60;80.50;;;;;;4977602;28;20019;-39
2024/03/16 07:01:43;;;;;;;1.33;1.05;;;13.60;80.50;;;;;;4979810;28;20019;-40
2024/03/16 07:04:09;;;;;;;2.00;1.30;;;13.60;80.60;;;;;;4993785;28;20489;-40
2024/03/16 07:06:35;;;;;;;1.20;1.10;;;13.60;80.60;;;;;;4967601;28;20046;-40
2024/03/16 07:09:03;;;;;;;3.72;1.40;;;13.50;80.60;;;;;;4974570;28;20027;-41
2024/03/16 07:11:29;;;;;;;2.35;1.20;;;13.60;80.60;;;;;;4969587;28;20086;-39
2024/03/16 07:13:54;;;;;;;1.48;1.17;;;13.60;80.70;;;;;;4975719;28;20027;-39
2024/03/16 07:16:21;;;;;;;1.83;1.10;;;13.50;80.60;;;;;;4974598;28;20035;-40
2024/03/16 07:18:47;;;;;;;1.65;1.27;;;13.50;80.70;;;;;;4981618;28;20494;-40
2024/03/16 07:21:19;;;;;;;1.83;1.17;;;13.50;80.70;;;;;;4976406;28;20114;-44
2024/03/16 07:23:47;;;;;;;2.40;1.30;;;13.50;80.70;;;;;;4985181;28;20031;-40
2024/03/16 07:26:13;;;;;;;1.88;1.13;;;13.50;80.70;;;;;;4973612;28;20023;-39
2024/03/16 07:28:39;;;;;;;2.63;1.20;;;13.50;80.70;;;;;;4956376;28;20034;-40
2024/03/16 07:31:05;;;;;;;2.10;1.20;;;13.50;80.70;;;;;;4975542;28;20030;-40
2024/03/16 07:33:30;;;;;;;1.40;1.20;;;13.40;80.70;;;;;;4984487;28;20033;-39
2024/03/16 07:35:58;;;;;;;2.60;1.40;;;13.40;80.70;;;;;;4972894;28;20027;-40
2024/03/16 07:38:24;;;;;;;1.48;1.33;;;13.40;80.80;;;;;;4969222;28;20566;-39
2024/03/16 07:40:52;;;;;;;1.75;1.10;;;13.40;80.80;;;;;;4971173;28;20507;-37
2024/03/16 07:43:17;;;;;;;1.60;1.20;;;13.40;80.80;;;;;;4970514;28;20076;-38
2024/03/16 07:45:49;;;;;;;2.50;1.33;;;13.40;80.80;;;;;;4964604;28;20027;-38
2024/03/16 07:48:15;;;;;;;1.83;1.20;;;13.40;80.80;;;;;;4970171;28;20046;-40
2024/03/16 07:50:40;;;;;;;1.92;1.25;;;13.30;80.80;;;;;;4957292;28;20027;-39
2024/03/16 07:53:06;;;;;;;2.03;1.33;;;13.30;80.80;;;;;;4973432;28;20038;-38
2024/03/16 07:55:33;;;;;;;1.95;1.20;;;13.30;80.80;;;;;;4983623;28;20522;-38
2024/03/16 07:58:00;;;;;;;3.67;1.40;;;13.30;81.50;;;;;;4964340;28;20066;-39
2024/03/16 08:00:26;;;;;;;1.35;1.25;;;13.30;80.80;;;;;;4973583;28;20022;-39
2024/03/16 08:02:51;;;;;;;1.92;1.20;;;13.30;80.90;;;;;;4970803;28;20029;-39
2024/03/16 08:05:17;;;;;;;2.30;1.30;;;13.30;80.90;;;;;;4980358;28;20031;-38
2024/03/16 08:07:44;;;;;;;2.40;1.30;;;13.30;80.90;;;;;;4979365;28;20015;-39
2024/03/16 08:10:10;;;;;;;4.43;1.50;;;13.30;80.90;;;;;;4984510;28;20031;-37
2024/03/16 08:12:39;;;;;;;2.47;1.30;;;13.30;80.90;;;;;;4974404;28;20037;-39
2024/03/16 08:15:06;;;;;;;2.55;1.20;;;13.30;80.90;;;;;;4970450;28;20030;-39
2024/03/16 08:17:32;;;;;;;2.50;1.70;;;13.30;80.90;;;;;;4963017;28;20039;-39
2024/03/16 08:19:58;;;;;;;2.00;1.30;;;13.30;81.00;;;;;;4969174;28;21244;-39
2024/03/16 08:22:24;;;;;;;2.05;1.40;;;13.30;80.90;;;;;;4980885;28;20050;-39
2024/03/16 08:24:50;;;;;;;1.77;1.20;;;13.30;81.00;;;;;;4984065;28;20042;-40
2024/03/16 08:27:17;;;;;;;2.67;1.33;;;13.30;80.90;;;;;;4978592;28;20015;-38
2024/03/16 08:29:43;;;;;;;3.35;1.50;;;13.30;81.00;;;;;;4978783;28;20023;-39
2024/03/16 08:32:11;;;;;;;1.30;1.20;;;13.30;81.00;;;;;;4976414;28;20434;-38
2024/03/16 08:34:37;;;;;;;1.80;1.30;;;13.30;81.00;;;;;;4983788;28;20039;-38
2024/03/16 08:37:03;;;;;;;2.22;1.42;;;13.30;81.00;;;;;;4975716;28;20038;-40
2024/03/16 08:39:31;;;;;;;3.08;1.55;;;13.30;81.00;;;;;;4969832;28;20531;-40
2024/03/16 08:41:57;;;;;;;2.58;1.45;;;13.30;80.90;;;;;;4977075;28;20091;-38
2024/03/16 08:44:23;;;;;;;1.77;1.40;;;13.30;81.00;;;;;;4979931;28;20109;-40
2024/03/16 08:46:49;;;;;;;2.63;1.50;;;13.30;81.00;;;;;;4975113;28;20027;-40
2024/03/16 08:49:15;;;;;;;2.65;1.30;;;13.20;81.00;;;;;;4956479;28;20051;-40
2024/03/16 08:51:40;;;;;;;1.48;1.30;;;13.30;81.00;;;;;;4971740;28;20050;-39
2024/03/16 08:54:06;;;;;;;1.90;1.20;;;13.30;81.00;;;;;;4985065;28;20030;-39
2024/03/16 08:56:32;;;;;;;2.72;1.60;;;13.20;80.90;;;;;;4979307;28;20035;-40
2024/03/16 08:58:58;;;;;;;2.35;1.20;;;13.30;81.10;;;;;;4972577;28;20160;-40
2024/03/16 09:01:23;;;;;;;2.50;1.40;;;13.30;81.00;;;;;;4976997;28;20090;-40
2024/03/16 09:03:49;;;;;;;1.45;1.20;;;13.30;81.00;;;;;;4981942;28;20050;-40
2024/03/16 09:06:16;;;;;;;3.03;1.50;;;13.30;80.90;;;;;;4968707;28;20038;-40
2024/03/16 09:08:42;;;;;;;2.30;1.45;;;13.30;80.90;;;;;;4961941;28;20534;-41
2024/03/16 09:11:09;;;;;;;3.33;1.52;;;13.30;80.90;;;;;;4972581;28;20091;-42
2024/03/16 09:13:35;;;;;;;3.33;1.40;;;13.30;81.00;;;;;;4978122;28;20237;-40
2024/03/16 09:16:07;;;;;;;3.15;1.50;;;13.40;80.90;;;;;;4972918;28;20033;-42
2024/03/16 09:18:37;;;;;;;2.97;1.58;;;13.40;80.90;;;;;;4978967;28;20027;-41
2024/03/16 09:21:05;;;;;;;2.30;1.40;;;13.30;80.80;;;;;;4962013;28;20031;-43
2024/03/16 09:23:31;;;;;;;3.05;1.42;;;13.40;80.80;;;;;;4975695;28;20090;-42
2024/03/16 09:25:57;;;;;;;2.05;1.40;;;13.40;80.80;;;;;;4974429;28;20034;-40
2024/03/16 09:28:23;;;;;;;2.90;1.45;;;13.40;80.80;;;;;;4977071;28;20035;-40
2024/03/16 09:30:49;;;;;;;4.35;1.58;;;13.40;80.80;;;;;;4975772;28;20062;-40
2024/03/16 09:33:15;;;;;;;3.50;1.48;;;13.40;81.40;;;;;;4956538;28;20039;-41
2024/03/16 09:35:42;;;;;;;3.25;1.52;;;13.40;80.70;;;;;;4971994;28;20033;-43
2024/03/16 09:38:08;;;;;;;2.55;1.50;;;13.40;81.40;;;;;;4971937;28;20175;-43
2024/03/16 09:40:43;;;;;;;3.70;1.40;;;13.40;80.70;;;;;;4976438;28;20038;-42
2024/03/16 09:43:10;;;;;;;2.88;1.42;;;13.40;80.80;;;;;;4984171;28;20045;-40
2024/03/16 09:45:36;;;;;;;2.92;1.50;;;13.40;80.70;;;;;;4964669;28;20030;-40
2024/03/16 09:48:03;;;;;;;3.40;1.70;;;13.50;80.80;;;;;;4972373;28;20039;-43
2024/03/16 09:50:30;;;;;;;3.65;1.60;;;13.50;80.80;;;;;;4967093;28;20535;-43
2024/03/16 09:52:59;;;;;;;2.30;1.45;;;13.50;80.80;;;;;;4974414;28;20362;-44
2024/03/16 09:55:27;;;;;;;2.33;1.50;;;13.50;80.70;;;;;;4984761;28;20581;-42
2024/03/16 09:57:53;;;;;;;2.03;1.50;;;13.50;80.70;;;;;;4971307;28;20058;-42
2024/03/16 10:00:21;;;;;;;2.38;1.40;;;13.60;80.70;;;;;;4980941;28;20074;-42
2024/03/16 10:02:49;;;;;;;3.35;1.33;;;13.60;80.70;;;;;;4974140;28;20027;-41
2024/03/16 10:05:17;;;;;;;2.85;1.50;;;13.60;80.70;;;;;;4991471;28;20094;-40
2024/03/16 10:07:44;;;;;;;3.42;1.70;;;13.60;80.60;;;;;;4980677;28;20098;-42
2024/03/16 10:10:15;;;;;;;2.80;1.50;;;13.60;80.60;;;;;;4974958;28;20506;-39
2024/03/16 10:12:41;;;;;;;3.75;1.42;;;13.60;80.60;;;;;;4983315;28;20129;-42
2024/03/16 10:15:19;;;;;;;6.75;1.48;;;13.70;80.60;;;;;;4968075;28;20023;-43
2024/03/16 10:17:45;;;;;;;2.63;2.08;;;13.70;80.60;;;;;;4964736;28;20024;-43
2024/03/16 10:20:16;;;;;;;3.20;1.60;;;13.70;80.50;;;;;;4966589;28;20054;-42
2024/03/16 10:22:50;;;;;;;2.55;1.63;;;13.70;80.50;;;;;;4979977;28;20047;-37
2024/03/16 10:25:17;;;;;;;3.33;1.60;;;13.70;80.50;;;;;;4983597;28;20117;-38
2024/03/16 10:27:44;;;;;;;2.83;1.63;;;13.70;80.40;;;;;;4980295;28;20035;-40
2024/03/16 10:30:12;;;;;;;4.00;1.50;;;13.70;80.40;;;;;;4982256;28;20031;-39
2024/03/16 10:32:41;;;;;;;2.35;1.50;;;13.70;80.40;;;;;;4981127;28;20045;-39
2024/03/16 10:35:14;;;;;;;2.40;1.23;;;13.80;80.40;;;;;;4981000;28;20114;-38
2024/03/16 10:37:46;;;;;;;3.58;1.60;;;13.80;80.40;;;;;;4966708;28;20039;-38
2024/03/16 10:40:16;;;;;;;3.28;1.40;;;13.80;80.40;;;;;;4976998;28;20117;-37
2024/03/16 10:42:53;;;;;;;3.47;1.75;;;13.80;80.40;;;;;;4975082;28;20078;-39
2024/03/16 10:45:20;;;;;;;3.10;1.60;;;13.80;80.40;;;;;;4983466;28;20041;-38
2024/03/16 10:47:53;;;;;;;2.95;1.40;;;13.80;80.40;;;;;;4978156;28;20053;-39
2024/03/16 10:50:21;;;;;;;3.00;1.40;;;13.80;80.40;;;;;;4954125;28;20055;-40
2024/03/16 10:52:48;;;;;;;3.95;1.60;;;13.80;80.40;;;;;;4980292;28;20106;-36
2024/03/16 10:55:16;;;;;;;4.07;1.50;;;13.90;80.40;;;;;;4988779;28;20027;-39
2024/03/16 10:57:44;;;;;;;2.17;1.30;;;13.80;80.30;;;;;;4976327;28;20034;-38
2024/03/16 11:00:29;;;;;;;2.67;1.30;;;13.90;80.20;;;;;;4978004;28;20097;-39
2024/03/16 11:03:01;;;;;;;2.10;1.30;;;13.90;80.10;;;;;;4946626;28;20090;-39
2024/03/16 11:05:35;;;;;;;2.05;1.15;;;13.90;80.10;;;;;;4985836;28;20102;-39
2024/03/16 11:08:23;;;;;;;2.40;1.30;;;13.90;80.10;;;;;;4969194;28;20094;-39
2024/03/16 11:10:49;;;;;;;2.95;1.30;;;13.90;80.10;;;;;;4980514;28;20022;-40
2024/03/16 11:13:20;;;;;;;3.00;1.33;;;13.90;80.00;;;;;;4981366;28;20042;-39
2024/03/16 11:15:46;;;;;;;2.17;1.40;;;13.90;80.00;;;;;;4953190;28;20043;-40
2024/03/16 11:18:21;;;;;;;4.30;1.52;;;14.00;80.00;;;;;;4968266;28;20050;-38
2024/03/16 11:20:50;;;;;;;3.47;1.60;;;14.00;80.00;;;;;;4978312;28;20220;-38
2024/03/16 11:23:25;;;;;;;2.85;1.50;;;14.00;80.00;;;;;;4979691;28;20034;-39
2024/03/16 11:25:51;;;;;;;5.10;1.88;;;14.00;80.00;;;;;;4956244;28;20035;-39
2024/03/16 11:28:18;;;;;;;3.45;1.33;;;14.00;79.90;;;;;;4978745;28;20034;-40
2024/03/16 11:30:46;;;;;;;4.35;1.50;;;14.10;79.90;;;;;;4982533;28;20029;-40
2024/03/16 11:33:24;;;;;;;1.98;1.50;;;14.00;79.90;;;;;;4981507;28;20092;-39
2024/03/16 11:35:50;;;;;;;2.10;1.45;;;14.10;79.90;;;;;;4974229;28;20039;-40
2024/03/16 11:38:16;;;;;;;1.90;1.30;;;14.10;79.90;;;;;;4973964;28;20047;-39
2024/03/16 11:40:47;;;;;;;3.00;1.58;;;14.20;79.80;;;;;;4977315;28;20023;-35
2024/03/16 11:43:14;;;;;;;1.90;1.20;;;14.20;79.70;;;;;;4981198;28;20046;-38
2024/03/16 11:45:41;;;;;;;4.15;1.45;;;14.20;79.70;;;;;;4979951;28;20109;-36
2024/03/16 11:48:10;;;;;;;2.45;1.27;;;14.20;79.70;;;;;;4981362;28;20106;-36
2024/03/16 11:50:39;;;;;;;2.97;1.60;;;14.20;79.70;;;;;;4979521;28;20019;-34
2024/03/16 11:53:09;;;;;;;3.03;1.42;;;14.20;79.60;;;;;;4978614;28;20035;-35
2024/03/16 11:55:36;;;;;;;2.50;1.33;;;14.30;79.60;;;;;;4987405;28;20039;-34
2024/03/16 11:58:09;;;;;;;3.35;1.50;;;14.30;79.60;;;;;;4949318;28;20019;-36
2024/03/16 12:00:35;;;;;;;3.53;1.40;;;14.30;79.60;;;;;;4961973;28;20057;-33
2024/03/16 12:03:04;;;;;;;1.85;1.55;;;14.30;79.50;;;;;;4967985;28;20073;-36
2024/03/16 12:05:31;;;;;;;2.80;1.58;;;14.30;79.50;;;;;;4980690;28;20034;-40
2024/03/16 12:07:58;;;;;;;2.15;1.35;;;14.40;79.50;;;;;;4968394;28;20023;-40
2024/03/16 12:10:25;;;;;;;4.57;1.58;;;14.40;79.30;;;;;;4978770;28;20039;-38
2024/03/16 12:12:51;;;;;;;5.57;1.60;;;14.40;79.30;;;;;;4969583;28;20058;-38
2024/03/16 12:15:22;;;;;;;3.95;1.75;;;14.40;79.20;;;;;;4981463;28;20030;-38
2024/03/16 12:17:48;;;;;;;2.88;1.50;;;14.40;79.20;;;;;;4980214;28;20023;-39
2024/03/16 12:20:18;;;;;;;2.78;1.40;;;14.50;79.10;;;;;;4957950;28;20057;-39
2024/03/16 12:22:45;;;;;;;4.30;1.70;;;14.50;79.10;;;;;;4972933;28;20109;-39
2024/03/16 12:25:11;;;;;;;4.43;1.50;;;14.50;79.00;;;;;;4971945;28;20030;-38
2024/03/16 12:27:52;;;;;;;3.28;1.40;;;14.60;79.00;;;;;;4970080;28;20091;-39
2024/03/16 12:30:19;;;;;;;2.80;1.50;;;14.60;79.00;;;;;;4979186;28;20027;-39
2024/03/16 12:32:46;;;;;;;4.25;1.42;;;14.60;78.90;;;;;;4979228;28;20038;-39
2024/03/16 12:35:12;;;;;;;3.20;1.45;;;14.60;78.90;;;;;;4978469;28;20034;-39
2024/03/16 12:37:42;;;;;;;2.00;1.38;;;14.60;78.90;;;;;;4976830;28;20683;-38
2024/03/16 12:40:08;;;;;;;2.88;1.30;;;14.70;78.90;;;;;;4978041;28;20038;-38
2024/03/16 12:42:34;;;;;;;3.58;1.90;;;14.70;78.80;;;;;;4980122;28;20031;-39
2024/03/16 12:45:00;;;;;;;1.90;1.50;;;14.70;78.70;;;;;;4969662;28;20059;-40
2024/03/16 12:47:27;;;;;;;3.33;1.63;;;14.70;78.70;;;;;;4976572;28;20050;-39
2024/03/16 12:49:56;;;;;;;1.92;1.38;;;14.80;78.60;;;;;;4977447;28;20019;-40